sensor_id;sensor_type;location;lat;lon;timestamp;P1;durP1;ratioP1;P2;durP2;ratioP2
62030;SDS011;62035;52.094;5.112;2024-02-21T00:01:15;15.82;;;2.88;;
62030;SDS011;62035;52.094;5.112;2024-02-21T00:03:42;10.15;;;2.70;;
62030;SDS011;62035;52.094;5.112;2024-02-21T00:06:09;17.40;;;3.58;;
62030;SDS011;62035;52.094;5.112;2024-02-21T00:08:37;21.55;;;4.30;;
62030;SDS011;62035;52.094;5.112;2024-02-21T00:11:04;9.10;;;2.80;;
62030;SDS011;62035;52.094;5.112;2024-02-21T00:13:31;13.32;;;3.45;;
62030;SDS011;62035;52.094;5.112;2024-02-21T00:16:01;16.63;;;4.38;;
62030;SDS011;62035;52.094;5.112;2024-02-21T00:18:28;17.15;;;3.63;;
62030;SDS011;62035;52.094;5.112;2024-02-21T00:20:55;16.40;;;3.22;;
62030;SDS011;62035;52.094;5.112;2024-02-21T00:23:22;16.63;;;3.50;;
62030;SDS011;62035;52.094;5.112;2024-02-21T00:25:50;17.08;;;3.38;;
62030;SDS011;62035;52.094;5.112;2024-02-21T00:28:17;10.70;;;2.80;;
62030;SDS011;62035;52.094;5.112;2024-02-21T00:30:44;14.48;;;3.80;;
62030;SDS011;62035;52.094;5.112;2024-02-21T00:33:14;11.60;;;3.08;;
62030;SDS011;62035;52.094;5.112;2024-02-21T00:35:41;12.27;;;3.03;;
62030;SDS011;62035;52.094;5.112;2024-02-21T00:38:09;11.35;;;3.38;;
62030;SDS011;62035;52.094;5.112;2024-02-21T00:40:36;14.13;;;2.95;;
62030;SDS011;62035;52.094;5.112;2024-02-21T00:43:03;13.10;;;2.95;;
62030;SDS011;62035;52.094;5.112;2024-02-21T00:45:30;10.90;;;3.00;;
62030;SDS011;62035;52.094;5.112;2024-02-21T00:47:57;20.15;;;3.10;;
62030;SDS011;62035;52.094;5.112;2024-02-21T00:50:26;11.32;;;3.40;;
62030;SDS011;62035;52.094;5.112;2024-02-21T00:52:53;16.35;;;2.92;;
62030;SDS011;62035;52.094;5.112;2024-02-21T00:55:20;12.98;;;3.35;;
62030;SDS011;62035;52.094;5.112;2024-02-21T00:57:47;12.70;;;3.22;;
62030;SDS011;62035;52.094;5.112;2024-02-21T01:00:15;10.25;;;3.08;;
62030;SDS011;62035;52.094;5.112;2024-02-21T01:02:43;16.02;;;3.00;;
62030;SDS011;62035;52.094;5.112;2024-02-21T01:05:10;11.77;;;2.78;;
62030;SDS011;62035;52.094;5.112;2024-02-21T01:07:38;13.48;;;3.28;;
62030;SDS011;62035;52.094;5.112;2024-02-21T01:10:06;15.60;;;3.42;;
62030;SDS011;62035;52.094;5.112;2024-02-21T01:12:34;10.95;;;3.03;;
62030;SDS011;62035;52.094;5.112;2024-02-21T01:15:01;14.55;;;2.75;;
62030;SDS011;62035;52.094;5.112;2024-02-21T01:17:28;10.10;;;3.40;;
62030;SDS011;62035;52.094;5.112;2024-02-21T01:19:56;12.48;;;3.00;;
62030;SDS011;62035;52.094;5.112;2024-02-21T01:22:23;12.15;;;3.47;;
62030;SDS011;62035;52.094;5.112;2024-02-21T01:24:52;14.13;;;3.53;;
62030;SDS011;62035;52.094;5.112;2024-02-21T01:27:19;16.92;;;3.28;;
62030;SDS011;62035;52.094;5.112;2024-02-21T01:29:46;15.25;;;3.60;;
62030;SDS011;62035;52.094;5.112;2024-02-21T01:32:15;13.80;;;3.35;;
62030;SDS011;62035;52.094;5.112;2024-02-21T01:34:42;11.82;;;3.65;;
62030;SDS011;62035;52.094;5.112;2024-02-21T01:37:10;18.65;;;3.90;;
62030;SDS011;62035;52.094;5.112;2024-02-21T01:39:37;15.13;;;3.53;;
62030;SDS011;62035;52.094;5.112;2024-02-21T01:42:06;12.68;;;3.53;;
62030;SDS011;62035;52.094;5.112;2024-02-21T01:44:34;13.48;;;3.67;;
62030;SDS011;62035;52.094;5.112;2024-02-21T01:47:02;11.80;;;3.35;;
62030;SDS011;62035;52.094;5.112;2024-02-21T01:49:29;14.60;;;4.40;;
62030;SDS011;62035;52.094;5.112;2024-02-21T01:51:57;13.13;;;3.50;;
62030;SDS011;62035;52.094;5.112;2024-02-21T01:54:24;17.55;;;4.15;;
62030;SDS011;62035;52.094;5.112;2024-02-21T01:56:54;9.45;;;3.65;;
62030;SDS011;62035;52.094;5.112;2024-02-21T01:59:22;14.68;;;3.90;;
62030;SDS011;62035;52.094;5.112;2024-02-21T02:01:50;15.82;;;5.03;;
62030;SDS011;62035;52.094;5.112;2024-02-21T02:04:18;11.02;;;3.80;;
62030;SDS011;62035;52.094;5.112;2024-02-21T02:06:46;13.98;;;4.18;;
62030;SDS011;62035;52.094;5.112;2024-02-21T02:09:14;12.85;;;3.88;;
62030;SDS011;62035;52.094;5.112;2024-02-21T02:11:42;17.52;;;3.58;;
62030;SDS011;62035;52.094;5.112;2024-02-21T02:14:09;14.55;;;3.90;;
62030;SDS011;62035;52.094;5.112;2024-02-21T02:16:38;12.32;;;3.63;;
62030;SDS011;62035;52.094;5.112;2024-02-21T02:19:06;11.10;;;3.75;;
62030;SDS011;62035;52.094;5.112;2024-02-21T02:21:39;18.73;;;4.65;;
62030;SDS011;62035;52.094;5.112;2024-02-21T02:24:10;12.65;;;4.03;;
62030;SDS011;62035;52.094;5.112;2024-02-21T02:26:39;15.88;;;4.32;;
62030;SDS011;62035;52.094;5.112;2024-02-21T02:29:06;10.70;;;4.28;;
62030;SDS011;62035;52.094;5.112;2024-02-21T02:31:33;15.32;;;3.90;;
62030;SDS011;62035;52.094;5.112;2024-02-21T02:34:00;13.57;;;4.05;;
62030;SDS011;62035;52.094;5.112;2024-02-21T02:36:28;17.75;;;4.85;;
62030;SDS011;62035;52.094;5.112;2024-02-21T02:38:55;11.38;;;4.20;;
62030;SDS011;62035;52.094;5.112;2024-02-21T02:41:23;18.05;;;4.45;;
62030;SDS011;62035;52.094;5.112;2024-02-21T02:43:50;18.10;;;4.55;;
62030;SDS011;62035;52.094;5.112;2024-02-21T02:46:18;11.30;;;4.05;;
62030;SDS011;62035;52.094;5.112;2024-02-21T02:48:45;10.88;;;3.67;;
62030;SDS011;62035;52.094;5.112;2024-02-21T02:51:12;16.17;;;4.05;;
62030;SDS011;62035;52.094;5.112;2024-02-21T02:53:39;13.68;;;3.33;;
62030;SDS011;62035;52.094;5.112;2024-02-21T02:56:13;18.58;;;4.53;;
62030;SDS011;62035;52.094;5.112;2024-02-21T02:58:43;13.52;;;4.30;;
62030;SDS011;62035;52.094;5.112;2024-02-21T03:01:10;13.95;;;3.80;;
62030;SDS011;62035;52.094;5.112;2024-02-21T03:03:37;18.67;;;4.40;;
62030;SDS011;62035;52.094;5.112;2024-02-21T03:06:04;19.15;;;5.07;;
62030;SDS011;62035;52.094;5.112;2024-02-21T03:08:32;12.95;;;3.95;;
62030;SDS011;62035;52.094;5.112;2024-02-21T03:10:59;23.02;;;4.93;;
62030;SDS011;62035;52.094;5.112;2024-02-21T03:13:27;14.05;;;3.92;;
62030;SDS011;62035;52.094;5.112;2024-02-21T03:15:55;17.08;;;3.67;;
62030;SDS011;62035;52.094;5.112;2024-02-21T03:18:22;10.80;;;4.15;;
62030;SDS011;62035;52.094;5.112;2024-02-21T03:20:50;17.13;;;4.30;;
62030;SDS011;62035;52.094;5.112;2024-02-21T03:23:17;13.73;;;3.90;;
62030;SDS011;62035;52.094;5.112;2024-02-21T03:25:44;12.00;;;4.18;;
62030;SDS011;62035;52.094;5.112;2024-02-21T03:28:11;11.65;;;4.90;;
62030;SDS011;62035;52.094;5.112;2024-02-21T03:30:39;13.50;;;4.03;;
62030;SDS011;62035;52.094;5.112;2024-02-21T03:33:07;11.55;;;4.15;;
62030;SDS011;62035;52.094;5.112;2024-02-21T03:35:34;14.43;;;4.25;;
62030;SDS011;62035;52.094;5.112;2024-02-21T03:38:02;14.13;;;4.13;;
62030;SDS011;62035;52.094;5.112;2024-02-21T03:40:29;12.50;;;4.72;;
62030;SDS011;62035;52.094;5.112;2024-02-21T03:42:57;13.63;;;3.85;;
62030;SDS011;62035;52.094;5.112;2024-02-21T03:45:24;11.07;;;4.50;;
62030;SDS011;62035;52.094;5.112;2024-02-21T03:47:51;18.25;;;4.50;;
62030;SDS011;62035;52.094;5.112;2024-02-21T03:50:20;15.80;;;4.45;;
62030;SDS011;62035;52.094;5.112;2024-02-21T03:52:47;13.85;;;4.63;;
62030;SDS011;62035;52.094;5.112;2024-02-21T03:55:14;12.95;;;4.18;;
62030;SDS011;62035;52.094;5.112;2024-02-21T03:57:41;17.23;;;4.20;;
62030;SDS011;62035;52.094;5.112;2024-02-21T04:00:09;15.32;;;3.92;;
62030;SDS011;62035;52.094;5.112;2024-02-21T04:02:37;10.65;;;3.78;;
62030;SDS011;62035;52.094;5.112;2024-02-21T04:05:04;16.50;;;4.78;;
62030;SDS011;62035;52.094;5.112;2024-02-21T04:07:37;13.35;;;4.18;;
62030;SDS011;62035;52.094;5.112;2024-02-21T04:10:05;14.63;;;4.18;;
62030;SDS011;62035;52.094;5.112;2024-02-21T04:12:33;13.05;;;3.92;;
62030;SDS011;62035;52.094;5.112;2024-02-21T04:15:00;10.25;;;3.80;;
62030;SDS011;62035;52.094;5.112;2024-02-21T04:17:27;10.85;;;4.10;;
62030;SDS011;62035;52.094;5.112;2024-02-21T04:20:01;14.57;;;3.90;;
62030;SDS011;62035;52.094;5.112;2024-02-21T04:22:31;9.70;;;4.30;;
62030;SDS011;62035;52.094;5.112;2024-02-21T04:25:00;11.35;;;4.45;;
62030;SDS011;62035;52.094;5.112;2024-02-21T04:27:28;11.07;;;4.38;;
62030;SDS011;62035;52.094;5.112;2024-02-21T04:29:55;9.75;;;4.57;;
62030;SDS011;62035;52.094;5.112;2024-02-21T04:32:22;6.38;;;3.60;;
62030;SDS011;62035;52.094;5.112;2024-02-21T04:34:49;10.15;;;3.85;;
62030;SDS011;62035;52.094;5.112;2024-02-21T04:37:16;12.93;;;4.57;;
62030;SDS011;62035;52.094;5.112;2024-02-21T04:39:44;12.23;;;3.72;;
62030;SDS011;62035;52.094;5.112;2024-02-21T04:42:13;12.77;;;4.50;;
62030;SDS011;62035;52.094;5.112;2024-02-21T04:44:40;9.05;;;4.60;;
62030;SDS011;62035;52.094;5.112;2024-02-21T04:47:07;11.57;;;5.00;;
62030;SDS011;62035;52.094;5.112;2024-02-21T04:49:34;13.95;;;4.97;;
62030;SDS011;62035;52.094;5.112;2024-02-21T04:52:02;10.50;;;4.75;;
62030;SDS011;62035;52.094;5.112;2024-02-21T04:54:29;12.02;;;4.70;;
62030;SDS011;62035;52.094;5.112;2024-02-21T04:56:56;11.50;;;5.25;;
62030;SDS011;62035;52.094;5.112;2024-02-21T04:59:25;12.73;;;5.18;;
62030;SDS011;62035;52.094;5.112;2024-02-21T05:01:52;13.48;;;5.43;;
62030;SDS011;62035;52.094;5.112;2024-02-21T05:04:19;12.32;;;5.65;;
62030;SDS011;62035;52.094;5.112;2024-02-21T05:06:46;10.73;;;5.00;;
62030;SDS011;62035;52.094;5.112;2024-02-21T05:09:13;10.38;;;5.07;;
62030;SDS011;62035;52.094;5.112;2024-02-21T05:11:41;16.60;;;5.80;;
62030;SDS011;62035;52.094;5.112;2024-02-21T05:14:08;10.35;;;5.13;;
62030;SDS011;62035;52.094;5.112;2024-02-21T05:16:36;12.70;;;5.28;;
62030;SDS011;62035;52.094;5.112;2024-02-21T05:19:05;13.05;;;5.20;;
62030;SDS011;62035;52.094;5.112;2024-02-21T05:21:32;11.30;;;5.80;;
62030;SDS011;62035;52.094;5.112;2024-02-21T05:23:59;10.68;;;5.55;;
62030;SDS011;62035;52.094;5.112;2024-02-21T05:26:27;14.73;;;6.20;;
62030;SDS011;62035;52.094;5.112;2024-02-21T05:28:54;12.30;;;5.53;;
62030;SDS011;62035;52.094;5.112;2024-02-21T05:31:21;15.05;;;6.25;;
62030;SDS011;62035;52.094;5.112;2024-02-21T05:33:50;10.90;;;5.43;;
62030;SDS011;62035;52.094;5.112;2024-02-21T05:36:17;13.93;;;5.45;;
62030;SDS011;62035;52.094;5.112;2024-02-21T05:38:44;13.60;;;5.50;;
62030;SDS011;62035;52.094;5.112;2024-02-21T05:41:12;10.35;;;6.05;;
62030;SDS011;62035;52.094;5.112;2024-02-21T05:43:40;12.05;;;5.68;;
62030;SDS011;62035;52.094;5.112;2024-02-21T05:46:07;15.32;;;5.20;;
62030;SDS011;62035;52.094;5.112;2024-02-21T05:48:34;14.15;;;5.78;;
62030;SDS011;62035;52.094;5.112;2024-02-21T05:51:03;10.00;;;5.20;;
62030;SDS011;62035;52.094;5.112;2024-02-21T05:53:30;13.93;;;5.35;;
62030;SDS011;62035;52.094;5.112;2024-02-21T05:55:57;10.60;;;5.40;;
62030;SDS011;62035;52.094;5.112;2024-02-21T05:58:25;16.50;;;6.32;;
62030;SDS011;62035;52.094;5.112;2024-02-21T06:00:53;10.10;;;5.47;;
62030;SDS011;62035;52.094;5.112;2024-02-21T06:03:20;10.57;;;5.22;;
62030;SDS011;62035;52.094;5.112;2024-02-21T06:05:47;12.88;;;5.55;;
62030;SDS011;62035;52.094;5.112;2024-02-21T06:08:16;12.50;;;5.53;;
62030;SDS011;62035;52.094;5.112;2024-02-21T06:10:43;9.90;;;5.10;;
62030;SDS011;62035;52.094;5.112;2024-02-21T06:13:11;12.13;;;5.47;;
62030;SDS011;62035;52.094;5.112;2024-02-21T06:15:38;15.48;;;6.07;;
62030;SDS011;62035;52.094;5.112;2024-02-21T06:18:05;12.18;;;6.00;;
62030;SDS011;62035;52.094;5.112;2024-02-21T06:20:32;13.00;;;6.35;;
62030;SDS011;62035;52.094;5.112;2024-02-21T06:23:01;14.73;;;6.85;;
62030;SDS011;62035;52.094;5.112;2024-02-21T06:25:30;13.55;;;6.28;;
62030;SDS011;62035;52.094;5.112;2024-02-21T06:27:57;13.80;;;7.10;;
62030;SDS011;62035;52.094;5.112;2024-02-21T06:30:24;16.55;;;6.82;;
62030;SDS011;62035;52.094;5.112;2024-02-21T06:32:52;16.50;;;6.70;;
62030;SDS011;62035;52.094;5.112;2024-02-21T06:35:21;14.02;;;7.03;;
62030;SDS011;62035;52.094;5.112;2024-02-21T06:37:50;16.58;;;7.00;;
62030;SDS011;62035;52.094;5.112;2024-02-21T06:40:17;16.73;;;7.18;;
62030;SDS011;62035;52.094;5.112;2024-02-21T06:42:46;19.30;;;7.28;;
62030;SDS011;62035;52.094;5.112;2024-02-21T06:45:13;19.20;;;6.95;;
62030;SDS011;62035;52.094;5.112;2024-02-21T06:47:40;14.95;;;6.63;;
62030;SDS011;62035;52.094;5.112;2024-02-21T06:50:08;22.25;;;7.00;;
62030;SDS011;62035;52.094;5.112;2024-02-21T06:52:35;19.23;;;6.32;;
62030;SDS011;62035;52.094;5.112;2024-02-21T06:55:03;20.85;;;7.07;;
62030;SDS011;62035;52.094;5.112;2024-02-21T06:57:31;17.20;;;7.22;;
62030;SDS011;62035;52.094;5.112;2024-02-21T06:59:59;19.75;;;6.85;;
62030;SDS011;62035;52.094;5.112;2024-02-21T07:02:26;16.02;;;6.30;;
62030;SDS011;62035;52.094;5.112;2024-02-21T07:04:54;15.10;;;6.70;;
62030;SDS011;62035;52.094;5.112;2024-02-21T07:07:21;16.25;;;7.45;;
62030;SDS011;62035;52.094;5.112;2024-02-21T07:09:48;16.90;;;7.50;;
62030;SDS011;62035;52.094;5.112;2024-02-21T07:12:15;19.75;;;7.03;;
62030;SDS011;62035;52.094;5.112;2024-02-21T07:14:42;20.58;;;7.13;;
62030;SDS011;62035;52.094;5.112;2024-02-21T07:17:12;22.42;;;8.13;;
62030;SDS011;62035;52.094;5.112;2024-02-21T07:19:39;19.30;;;7.10;;
62030;SDS011;62035;52.094;5.112;2024-02-21T07:22:06;16.92;;;7.53;;
62030;SDS011;62035;52.094;5.112;2024-02-21T07:24:34;17.10;;;7.13;;
62030;SDS011;62035;52.094;5.112;2024-02-21T07:27:03;19.92;;;8.13;;
62030;SDS011;62035;52.094;5.112;2024-02-21T07:29:31;14.80;;;7.57;;
62030;SDS011;62035;52.094;5.112;2024-02-21T07:31:58;19.27;;;7.93;;
62030;SDS011;62035;52.094;5.112;2024-02-21T07:34:26;22.48;;;8.23;;
62030;SDS011;62035;52.094;5.112;2024-02-21T07:36:53;16.17;;;8.05;;
62030;SDS011;62035;52.094;5.112;2024-02-21T07:39:21;18.30;;;8.13;;
62030;SDS011;62035;52.094;5.112;2024-02-21T07:41:48;25.92;;;8.18;;
62030;SDS011;62035;52.094;5.112;2024-02-21T07:44:15;16.45;;;8.20;;
62030;SDS011;62035;52.094;5.112;2024-02-21T07:46:43;18.52;;;7.97;;
62030;SDS011;62035;52.094;5.112;2024-02-21T07:49:10;19.27;;;8.88;;
62030;SDS011;62035;52.094;5.112;2024-02-21T07:51:38;22.90;;;9.13;;
62030;SDS011;62035;52.094;5.112;2024-02-21T07:54:05;21.30;;;8.68;;
62030;SDS011;62035;52.094;5.112;2024-02-21T07:56:33;14.65;;;7.93;;
62030;SDS011;62035;52.094;5.112;2024-02-21T07:59:00;16.50;;;8.75;;
62030;SDS011;62035;52.094;5.112;2024-02-21T08:01:27;15.45;;;7.65;;
62030;SDS011;62035;52.094;5.112;2024-02-21T08:03:54;23.33;;;8.75;;
62030;SDS011;62035;52.094;5.112;2024-02-21T08:06:21;18.95;;;9.10;;
62030;SDS011;62035;52.094;5.112;2024-02-21T08:08:50;17.40;;;7.68;;
62030;SDS011;62035;52.094;5.112;2024-02-21T08:11:18;26.65;;;8.82;;
62030;SDS011;62035;52.094;5.112;2024-02-21T08:13:45;21.92;;;7.97;;
62030;SDS011;62035;52.094;5.112;2024-02-21T08:16:12;19.17;;;8.65;;
62030;SDS011;62035;52.094;5.112;2024-02-21T08:18:39;25.63;;;8.98;;
62030;SDS011;62035;52.094;5.112;2024-02-21T08:21:09;20.20;;;8.45;;
62030;SDS011;62035;52.094;5.112;2024-02-21T08:23:36;14.85;;;7.32;;
62030;SDS011;62035;52.094;5.112;2024-02-21T08:26:05;20.88;;;8.45;;
62030;SDS011;62035;52.094;5.112;2024-02-21T08:28:32;23.25;;;8.65;;
62030;SDS011;62035;52.094;5.112;2024-02-21T08:30:59;15.55;;;7.68;;
62030;SDS011;62035;52.094;5.112;2024-02-21T08:33:27;20.52;;;8.30;;
62030;SDS011;62035;52.094;5.112;2024-02-21T08:35:55;17.63;;;7.80;;
62030;SDS011;62035;52.094;5.112;2024-02-21T08:38:22;15.55;;;8.40;;
62030;SDS011;62035;52.094;5.112;2024-02-21T08:40:50;17.13;;;8.18;;
62030;SDS011;62035;52.094;5.112;2024-02-21T08:43:19;18.77;;;8.70;;
62030;SDS011;62035;52.094;5.112;2024-02-21T08:45:46;16.63;;;8.52;;
62030;SDS011;62035;52.094;5.112;2024-02-21T08:48:13;14.95;;;7.85;;
62030;SDS011;62035;52.094;5.112;2024-02-21T08:50:40;21.20;;;9.13;;
62030;SDS011;62035;52.094;5.112;2024-02-21T08:53:07;20.05;;;9.25;;
62030;SDS011;62035;52.094;5.112;2024-02-21T08:55:35;20.77;;;8.82;;
62030;SDS011;62035;52.094;5.112;2024-02-21T08:58:02;17.38;;;8.05;;
62030;SDS011;62035;52.094;5.112;2024-02-21T09:00:31;22.35;;;8.27;;
62030;SDS011;62035;52.094;5.112;2024-02-21T09:02:58;21.35;;;8.13;;
62030;SDS011;62035;52.094;5.112;2024-02-21T09:05:25;19.55;;;8.88;;
62030;SDS011;62035;52.094;5.112;2024-02-21T09:07:52;22.35;;;8.27;;
62030;SDS011;62035;52.094;5.112;2024-02-21T09:10:20;15.02;;;8.15;;
62030;SDS011;62035;52.094;5.112;2024-02-21T09:12:47;15.60;;;7.50;;
62030;SDS011;62035;52.094;5.112;2024-02-21T09:15:14;18.52;;;7.38;;
62030;SDS011;62035;52.094;5.112;2024-02-21T09:17:43;24.83;;;8.10;;
62030;SDS011;62035;52.094;5.112;2024-02-21T09:20:10;16.15;;;7.65;;
62030;SDS011;62035;52.094;5.112;2024-02-21T09:22:41;18.83;;;7.97;;
62030;SDS011;62035;52.094;5.112;2024-02-21T09:25:08;19.30;;;7.00;;
62030;SDS011;62035;52.094;5.112;2024-02-21T09:27:37;20.48;;;7.65;;
62030;SDS011;62035;52.094;5.112;2024-02-21T09:30:05;18.15;;;8.05;;
62030;SDS011;62035;52.094;5.112;2024-02-21T09:32:33;15.30;;;7.70;;
62030;SDS011;62035;52.094;5.112;2024-02-21T09:35:02;16.92;;;6.78;;
62030;SDS011;62035;52.094;5.112;2024-02-21T09:37:30;18.70;;;7.00;;
62030;SDS011;62035;52.094;5.112;2024-02-21T09:39:58;13.88;;;6.70;;
62030;SDS011;62035;52.094;5.112;2024-02-21T09:42:26;16.35;;;6.22;;
62030;SDS011;62035;52.094;5.112;2024-02-21T09:45:03;16.85;;;7.00;;
62030;SDS011;62035;52.094;5.112;2024-02-21T09:47:39;10.30;;;5.90;;
62030;SDS011;62035;52.094;5.112;2024-02-21T09:50:12;15.00;;;6.93;;
62030;SDS011;62035;52.094;5.112;2024-02-21T09:52:40;24.25;;;6.82;;
62030;SDS011;62035;52.094;5.112;2024-02-21T09:55:10;18.70;;;6.20;;
62030;SDS011;62035;52.094;5.112;2024-02-21T09:57:39;15.32;;;6.10;;
62030;SDS011;62035;52.094;5.112;2024-02-21T10:00:06;15.75;;;5.93;;
62030;SDS011;62035;52.094;5.112;2024-02-21T10:02:34;17.05;;;5.82;;
62030;SDS011;62035;52.094;5.112;2024-02-21T10:05:02;12.98;;;5.93;;
62030;SDS011;62035;52.094;5.112;2024-02-21T10:07:35;13.57;;;5.88;;
62030;SDS011;62035;52.094;5.112;2024-02-21T10:10:04;13.55;;;6.05;;
62030;SDS011;62035;52.094;5.112;2024-02-21T10:12:32;12.70;;;5.50;;
62030;SDS011;62035;52.094;5.112;2024-02-21T10:15:02;15.57;;;5.50;;
62030;SDS011;62035;52.094;5.112;2024-02-21T10:17:29;12.45;;;5.50;;
62030;SDS011;62035;52.094;5.112;2024-02-21T10:20:06;15.48;;;5.47;;
62030;SDS011;62035;52.094;5.112;2024-02-21T10:22:35;11.13;;;4.95;;
62030;SDS011;62035;52.094;5.112;2024-02-21T10:25:08;11.95;;;5.22;;
62030;SDS011;62035;52.094;5.112;2024-02-21T10:27:36;9.73;;;4.68;;
62030;SDS011;62035;52.094;5.112;2024-02-21T10:30:04;9.93;;;5.10;;
62030;SDS011;62035;52.094;5.112;2024-02-21T10:32:32;11.00;;;5.32;;
62030;SDS011;62035;52.094;5.112;2024-02-21T10:35:02;11.95;;;5.20;;
62030;SDS011;62035;52.094;5.112;2024-02-21T10:37:31;11.40;;;5.38;;
62030;SDS011;62035;52.094;5.112;2024-02-21T10:40:00;8.57;;;5.05;;
62030;SDS011;62035;52.094;5.112;2024-02-21T10:42:29;10.25;;;5.15;;
62030;SDS011;62035;52.094;5.112;2024-02-21T10:45:00;7.57;;;4.53;;
62030;SDS011;62035;52.094;5.112;2024-02-21T10:47:30;8.15;;;4.13;;
62030;SDS011;62035;52.094;5.112;2024-02-21T10:50:02;9.38;;;4.50;;
62030;SDS011;62035;52.094;5.112;2024-02-21T10:57:41;8.43;;;3.67;;
62030;SDS011;62035;52.094;5.112;2024-02-21T11:00:09;7.60;;;4.18;;
62030;SDS011;62035;52.094;5.112;2024-02-21T11:02:38;10.63;;;4.80;;
62030;SDS011;62035;52.094;5.112;2024-02-21T11:05:06;7.35;;;4.10;;
62030;SDS011;62035;52.094;5.112;2024-02-21T11:07:35;10.55;;;4.30;;
62030;SDS011;62035;52.094;5.112;2024-02-21T11:10:04;9.77;;;4.53;;
62030;SDS011;62035;52.094;5.112;2024-02-21T11:12:34;6.78;;;4.22;;
62030;SDS011;62035;52.094;5.112;2024-02-21T11:15:04;11.40;;;4.72;;
62030;SDS011;62035;52.094;5.112;2024-02-21T11:17:32;7.60;;;4.45;;
62030;SDS011;62035;52.094;5.112;2024-02-21T11:20:10;10.32;;;4.53;;
62030;SDS011;62035;52.094;5.112;2024-02-21T11:22:41;9.35;;;5.05;;
62030;SDS011;62035;52.094;5.112;2024-02-21T11:25:08;12.00;;;5.45;;
62030;SDS011;62035;52.094;5.112;2024-02-21T11:27:38;13.00;;;5.47;;
62030;SDS011;62035;52.094;5.112;2024-02-21T11:30:12;9.07;;;5.20;;
62030;SDS011;62035;52.094;5.112;2024-02-21T11:32:40;8.52;;;5.32;;
62030;SDS011;62035;52.094;5.112;2024-02-21T11:35:07;11.00;;;5.35;;
62030;SDS011;62035;52.094;5.112;2024-02-21T11:37:45;11.10;;;5.60;;
62030;SDS011;62035;52.094;5.112;2024-02-21T11:40:12;7.35;;;5.35;;
62030;SDS011;62035;52.094;5.112;2024-02-21T11:42:41;11.18;;;5.88;;
62030;SDS011;62035;52.094;5.112;2024-02-21T11:45:09;11.93;;;6.25;;
62030;SDS011;62035;52.094;5.112;2024-02-21T11:47:36;10.05;;;5.00;;
62030;SDS011;62035;52.094;5.112;2024-02-21T11:50:09;8.13;;;4.97;;
62030;SDS011;62035;52.094;5.112;2024-02-21T11:52:37;9.48;;;5.13;;
62030;SDS011;62035;52.094;5.112;2024-02-21T11:55:04;10.45;;;5.57;;
62030;SDS011;62035;52.094;5.112;2024-02-21T11:57:34;8.48;;;5.40;;
62030;SDS011;62035;52.094;5.112;2024-02-21T12:00:15;10.00;;;5.15;;
62030;SDS011;62035;52.094;5.112;2024-02-21T12:02:43;8.82;;;5.60;;
62030;SDS011;62035;52.094;5.112;2024-02-21T12:05:11;11.48;;;5.80;;
62030;SDS011;62035;52.094;5.112;2024-02-21T12:07:38;10.00;;;5.40;;
62030;SDS011;62035;52.094;5.112;2024-02-21T12:10:07;8.07;;;4.88;;
62030;SDS011;62035;52.094;5.112;2024-02-21T12:12:35;8.27;;;5.05;;
62030;SDS011;62035;52.094;5.112;2024-02-21T12:15:03;8.40;;;5.22;;
62030;SDS011;62035;52.094;5.112;2024-02-21T12:17:33;7.65;;;4.68;;
62030;SDS011;62035;52.094;5.112;2024-02-21T12:20:01;10.63;;;5.00;;
62030;SDS011;62035;52.094;5.112;2024-02-21T12:22:31;11.60;;;5.00;;
62030;SDS011;62035;52.094;5.112;2024-02-21T12:24:58;8.38;;;4.53;;
62030;SDS011;62035;52.094;5.112;2024-02-21T12:27:26;9.40;;;4.53;;
62030;SDS011;62035;52.094;5.112;2024-02-21T12:29:53;11.30;;;5.18;;
62030;SDS011;62035;52.094;5.112;2024-02-21T12:32:20;7.05;;;4.40;;
62030;SDS011;62035;52.094;5.112;2024-02-21T12:34:49;10.13;;;4.65;;
62030;SDS011;62035;52.094;5.112;2024-02-21T12:37:16;9.02;;;4.70;;
62030;SDS011;62035;52.094;5.112;2024-02-21T12:39:43;11.75;;;4.80;;
62030;SDS011;62035;52.094;5.112;2024-02-21T12:42:10;13.90;;;4.82;;
62030;SDS011;62035;52.094;5.112;2024-02-21T12:44:38;8.23;;;4.28;;
62030;SDS011;62035;52.094;5.112;2024-02-21T12:47:05;7.22;;;4.45;;
62030;SDS011;62035;52.094;5.112;2024-02-21T12:49:33;6.63;;;4.10;;
62030;SDS011;62035;52.094;5.112;2024-02-21T12:52:02;9.85;;;4.45;;
62030;SDS011;62035;52.094;5.112;2024-02-21T12:54:30;7.82;;;4.35;;
62030;SDS011;62035;52.094;5.112;2024-02-21T12:56:57;7.28;;;4.20;;
62030;SDS011;62035;52.094;5.112;2024-02-21T12:59:28;11.23;;;4.32;;
62030;SDS011;62035;52.094;5.112;2024-02-21T13:01:55;7.55;;;4.40;;
62030;SDS011;62035;52.094;5.112;2024-02-21T13:04:23;13.88;;;4.88;;
62030;SDS011;62035;52.094;5.112;2024-02-21T13:06:50;7.13;;;4.20;;
62030;SDS011;62035;52.094;5.112;2024-02-21T13:09:18;6.43;;;3.60;;
62030;SDS011;62035;52.094;5.112;2024-02-21T13:11:45;9.13;;;4.00;;
62030;SDS011;62035;52.094;5.112;2024-02-21T13:14:12;6.55;;;3.65;;
62030;SDS011;62035;52.094;5.112;2024-02-21T13:16:40;6.43;;;3.63;;
62030;SDS011;62035;52.094;5.112;2024-02-21T13:19:07;14.48;;;4.22;;
62030;SDS011;62035;52.094;5.112;2024-02-21T13:21:35;8.77;;;3.83;;
62030;SDS011;62035;52.094;5.112;2024-02-21T13:24:03;9.15;;;3.63;;
62030;SDS011;62035;52.094;5.112;2024-02-21T13:26:32;6.72;;;3.58;;
62030;SDS011;62035;52.094;5.112;2024-02-21T13:28:59;11.98;;;4.15;;
62030;SDS011;62035;52.094;5.112;2024-02-21T13:31:27;7.90;;;3.50;;
62030;SDS011;62035;52.094;5.112;2024-02-21T13:33:54;9.45;;;4.18;;
62030;SDS011;62035;52.094;5.112;2024-02-21T13:36:21;7.10;;;3.50;;
62030;SDS011;62035;52.094;5.112;2024-02-21T13:38:49;10.93;;;3.85;;
62030;SDS011;62035;52.094;5.112;2024-02-21T13:41:17;8.75;;;3.70;;
62030;SDS011;62035;52.094;5.112;2024-02-21T13:43:45;11.10;;;4.00;;
62030;SDS011;62035;52.094;5.112;2024-02-21T13:46:13;11.00;;;4.28;;
62030;SDS011;62035;52.094;5.112;2024-02-21T13:48:40;13.07;;;4.25;;
62030;SDS011;62035;52.094;5.112;2024-02-21T13:51:08;8.35;;;4.15;;
62030;SDS011;62035;52.094;5.112;2024-02-21T13:53:35;8.95;;;4.43;;
62030;SDS011;62035;52.094;5.112;2024-02-21T13:56:02;8.02;;;4.13;;
62030;SDS011;62035;52.094;5.112;2024-02-21T13:58:30;14.23;;;4.75;;
62030;SDS011;62035;52.094;5.112;2024-02-21T14:00:58;10.40;;;3.85;;
62030;SDS011;62035;52.094;5.112;2024-02-21T14:03:26;12.85;;;4.20;;
62030;SDS011;62035;52.094;5.112;2024-02-21T14:05:53;11.68;;;4.22;;
62030;SDS011;62035;52.094;5.112;2024-02-21T14:08:20;14.00;;;4.30;;
62030;SDS011;62035;52.094;5.112;2024-02-21T14:10:49;9.90;;;3.95;;
62030;SDS011;62035;52.094;5.112;2024-02-21T14:13:16;9.00;;;4.03;;
62030;SDS011;62035;52.094;5.112;2024-02-21T14:15:44;9.52;;;3.88;;
62030;SDS011;62035;52.094;5.112;2024-02-21T14:18:15;6.75;;;3.53;;
62030;SDS011;62035;52.094;5.112;2024-02-21T14:20:42;12.55;;;4.45;;
62030;SDS011;62035;52.094;5.112;2024-02-21T14:23:09;11.77;;;3.75;;
62030;SDS011;62035;52.094;5.112;2024-02-21T14:25:38;10.77;;;4.05;;
62030;SDS011;62035;52.094;5.112;2024-02-21T14:28:07;8.68;;;3.92;;
62030;SDS011;62035;52.094;5.112;2024-02-21T14:30:36;8.70;;;4.13;;
62030;SDS011;62035;52.094;5.112;2024-02-21T14:33:03;8.02;;;3.75;;
62030;SDS011;62035;52.094;5.112;2024-02-21T14:35:32;11.63;;;4.00;;
62030;SDS011;62035;52.094;5.112;2024-02-21T14:37:59;8.02;;;4.18;;
62030;SDS011;62035;52.094;5.112;2024-02-21T14:40:27;11.90;;;4.13;;
62030;SDS011;62035;52.094;5.112;2024-02-21T14:42:55;10.18;;;5.05;;
62030;SDS011;62035;52.094;5.112;2024-02-21T14:45:22;9.05;;;4.30;;